sensor_id;sensor_type;location;lat;lon;timestamp;P1;durP1;ratioP1;P2;durP2;ratioP2
44143;SDS011;43510;51.920;4.492;2022-10-16T00:00:19;7.30;;;1.17;;
44143;SDS011;43510;51.920;4.492;2022-10-16T00:02:44;5.55;;;1.23;;
44143;SDS011;43510;51.920;4.492;2022-10-16T00:05:10;5.88;;;1.33;;
44143;SDS011;43510;51.920;4.492;2022-10-16T00:07:35;1.67;;;0.80;;
44143;SDS011;43510;51.920;4.492;2022-10-16T00:10:01;3.90;;;1.05;;
44143;SDS011;43510;51.920;4.492;2022-10-16T00:12:26;5.47;;;1.27;;
44143;SDS011;43510;51.920;4.492;2022-10-16T00:14:51;2.95;;;0.90;;
44143;SDS011;43510;51.920;4.492;2022-10-16T00:17:17;2.97;;;1.08;;
44143;SDS011;43510;51.920;4.492;2022-10-16T00:19:42;2.38;;;0.85;;
44143;SDS011;43510;51.920;4.492;2022-10-16T00:22:08;2.30;;;0.88;;
44143;SDS011;43510;51.920;4.492;2022-10-16T00:24:33;5.03;;;0.80;;
44143;SDS011;43510;51.920;4.492;2022-10-16T00:26:58;4.20;;;0.63;;
44143;SDS011;43510;51.920;4.492;2022-10-16T00:29:24;2.25;;;0.70;;
44143;SDS011;43510;51.920;4.492;2022-10-16T00:31:49;6.18;;;1.00;;
44143;SDS011;43510;51.920;4.492;2022-10-16T00:34:15;5.25;;;0.95;;
44143;SDS011;43510;51.920;4.492;2022-10-16T00:36:42;6.15;;;1.05;;
44143;SDS011;43510;51.920;4.492;2022-10-16T00:39:07;6.07;;;1.90;;
44143;SDS011;43510;51.920;4.492;2022-10-16T00:41:33;6.40;;;1.15;;
44143;SDS011;43510;51.920;4.492;2022-10-16T00:44:00;3.78;;;0.98;;
44143;SDS011;43510;51.920;4.492;2022-10-16T00:46:28;2.92;;;1.05;;
44143;SDS011;43510;51.920;4.492;2022-10-16T00:49:01;3.95;;;1.15;;
44143;SDS011;43510;51.920;4.492;2022-10-16T00:51:31;7.43;;;1.40;;
44143;SDS011;43510;51.920;4.492;2022-10-16T00:53:58;5.32;;;1.52;;
44143;SDS011;43510;51.920;4.492;2022-10-16T00:56:25;3.88;;;1.20;;
44143;SDS011;43510;51.920;4.492;2022-10-16T00:58:51;3.33;;;1.25;;
44143;SDS011;43510;51.920;4.492;2022-10-16T01:01:17;5.15;;;1.27;;
44143;SDS011;43510;51.920;4.492;2022-10-16T01:03:42;4.22;;;1.33;;
44143;SDS011;43510;51.920;4.492;2022-10-16T01:09:19;3.83;;;1.30;;
44143;SDS011;43510;51.920;4.492;2022-10-16T01:17:51;7.72;;;1.85;;
44143;SDS011;43510;51.920;4.492;2022-10-16T01:20:04;4.90;;;1.35;;
44143;SDS011;43510;51.920;4.492;2022-10-16T01:22:39;4.95;;;1.48;;
44143;SDS011;43510;51.920;4.492;2022-10-16T01:28:09;3.55;;;1.13;;
44143;SDS011;43510;51.920;4.492;2022-10-16T01:30:38;4.85;;;1.80;;
44143;SDS011;43510;51.920;4.492;2022-10-16T01:33:20;4.13;;;1.67;;
44143;SDS011;43510;51.920;4.492;2022-10-16T01:38:21;4.75;;;1.40;;
44143;SDS011;43510;51.920;4.492;2022-10-16T01:41:10;2.50;;;1.20;;
44143;SDS011;43510;51.920;4.492;2022-10-16T01:43:46;9.37;;;1.70;;
44143;SDS011;43510;51.920;4.492;2022-10-16T01:46:16;4.53;;;1.60;;
44143;SDS011;43510;51.920;4.492;2022-10-16T01:48:44;3.70;;;1.52;;
44143;SDS011;43510;51.920;4.492;2022-10-16T01:51:11;4.78;;;1.85;;
44143;SDS011;43510;51.920;4.492;2022-10-16T01:53:40;4.22;;;1.77;;
44143;SDS011;43510;51.920;4.492;2022-10-16T01:56:09;6.72;;;2.20;;
44143;SDS011;43510;51.920;4.492;2022-10-16T01:58:38;4.18;;;1.63;;
44143;SDS011;43510;51.920;4.492;2022-10-16T02:01:08;7.22;;;1.60;;
44143;SDS011;43510;51.920;4.492;2022-10-16T02:03:36;4.35;;;1.63;;
44143;SDS011;43510;51.920;4.492;2022-10-16T02:06:06;3.00;;;1.50;;
44143;SDS011;43510;51.920;4.492;2022-10-16T02:08:32;3.95;;;1.65;;
44143;SDS011;43510;51.920;4.492;2022-10-16T02:10:59;4.50;;;1.83;;
44143;SDS011;43510;51.920;4.492;2022-10-16T02:16:13;6.25;;;1.77;;
44143;SDS011;43510;51.920;4.492;2022-10-16T02:18:39;4.82;;;1.38;;
44143;SDS011;43510;51.920;4.492;2022-10-16T02:21:28;3.75;;;1.40;;
44143;SDS011;43510;51.920;4.492;2022-10-16T02:26:30;5.72;;;1.70;;
44143;SDS011;43510;51.920;4.492;2022-10-16T02:29:04;2.88;;;1.40;;
44143;SDS011;43510;51.920;4.492;2022-10-16T02:31:38;3.95;;;1.40;;
44143;SDS011;43510;51.920;4.492;2022-10-16T02:34:08;4.75;;;1.90;;
44143;SDS011;43510;51.920;4.492;2022-10-16T02:36:40;4.07;;;1.27;;
44143;SDS011;43510;51.920;4.492;2022-10-16T02:39:07;5.78;;;1.77;;
44143;SDS011;43510;51.920;4.492;2022-10-16T02:41:34;2.65;;;1.15;;
44143;SDS011;43510;51.920;4.492;2022-10-16T02:44:00;3.13;;;1.13;;
44143;SDS011;43510;51.920;4.492;2022-10-16T02:46:26;4.30;;;1.23;;
44143;SDS011;43510;51.920;4.492;2022-10-16T02:48:52;4.07;;;1.42;;
44143;SDS011;43510;51.920;4.492;2022-10-16T02:51:18;3.97;;;1.48;;
44143;SDS011;43510;51.920;4.492;2022-10-16T02:53:43;3.40;;;1.13;;
44143;SDS011;43510;51.920;4.492;2022-10-16T02:56:09;4.43;;;1.20;;
44143;SDS011;43510;51.920;4.492;2022-10-16T02:58:34;3.38;;;1.13;;
44143;SDS011;43510;51.920;4.492;2022-10-16T03:01:00;4.07;;;1.48;;
44143;SDS011;43510;51.920;4.492;2022-10-16T03:03:25;3.28;;;1.08;;
44143;SDS011;43510;51.920;4.492;2022-10-16T03:05:51;3.70;;;1.30;;
44143;SDS011;43510;51.920;4.492;2022-10-16T03:08:23;4.47;;;1.65;;
44143;SDS011;43510;51.920;4.492;2022-10-16T03:10:57;3.70;;;1.35;;
44143;SDS011;43510;51.920;4.492;2022-10-16T03:13:34;4.70;;;1.20;;
44143;SDS011;43510;51.920;4.492;2022-10-16T03:16:00;5.15;;;1.38;;
44143;SDS011;43510;51.920;4.492;2022-10-16T03:18:25;4.65;;;1.50;;
44143;SDS011;43510;51.920;4.492;2022-10-16T03:20:51;5.15;;;1.50;;
44143;SDS011;43510;51.920;4.492;2022-10-16T03:23:17;3.58;;;1.30;;
44143;SDS011;43510;51.920;4.492;2022-10-16T03:25:45;3.28;;;1.20;;
44143;SDS011;43510;51.920;4.492;2022-10-16T03:28:10;5.78;;;1.42;;
44143;SDS011;43510;51.920;4.492;2022-10-16T03:30:36;5.55;;;1.38;;
44143;SDS011;43510;51.920;4.492;2022-10-16T03:33:15;3.50;;;1.30;;
44143;SDS011;43510;51.920;4.492;2022-10-16T03:35:50;3.72;;;1.25;;
44143;SDS011;43510;51.920;4.492;2022-10-16T03:38:18;2.45;;;0.80;;
44143;SDS011;43510;51.920;4.492;2022-10-16T03:40:43;4.97;;;1.45;;
44143;SDS011;43510;51.920;4.492;2022-10-16T03:43:09;4.05;;;1.65;;
44143;SDS011;43510;51.920;4.492;2022-10-16T03:45:34;4.05;;;1.10;;
44143;SDS011;43510;51.920;4.492;2022-10-16T03:48:00;5.50;;;1.27;;
44143;SDS011;43510;51.920;4.492;2022-10-16T03:50:25;8.98;;;1.15;;
44143;SDS011;43510;51.920;4.492;2022-10-16T03:52:51;11.15;;;1.50;;
44143;SDS011;43510;51.920;4.492;2022-10-16T03:55:16;4.10;;;1.35;;
44143;SDS011;43510;51.920;4.492;2022-10-16T03:57:42;4.90;;;1.00;;
44143;SDS011;43510;51.920;4.492;2022-10-16T04:00:17;3.60;;;1.20;;
44143;SDS011;43510;51.920;4.492;2022-10-16T04:02:43;3.08;;;1.10;;
44143;SDS011;43510;51.920;4.492;2022-10-16T04:05:09;2.95;;;1.40;;
44143;SDS011;43510;51.920;4.492;2022-10-16T04:07:34;3.20;;;1.10;;
44143;SDS011;43510;51.920;4.492;2022-10-16T04:10:00;3.40;;;1.27;;
44143;SDS011;43510;51.920;4.492;2022-10-16T04:12:26;8.02;;;1.40;;
44143;SDS011;43510;51.920;4.492;2022-10-16T04:14:51;9.00;;;1.67;;
44143;SDS011;43510;51.920;4.492;2022-10-16T04:17:17;2.00;;;1.08;;
44143;SDS011;43510;51.920;4.492;2022-10-16T04:19:42;3.95;;;1.17;;
44143;SDS011;43510;51.920;4.492;2022-10-16T04:22:08;5.45;;;1.70;;
44143;SDS011;43510;51.920;4.492;2022-10-16T04:24:33;6.00;;;1.20;;
44143;SDS011;43510;51.920;4.492;2022-10-16T04:26:59;4.80;;;1.40;;
44143;SDS011;43510;51.920;4.492;2022-10-16T04:29:29;3.25;;;1.30;;
44143;SDS011;43510;51.920;4.492;2022-10-16T04:32:16;4.53;;;1.98;;
44143;SDS011;43510;51.920;4.492;2022-10-16T04:34:41;6.07;;;1.23;;
44143;SDS011;43510;51.920;4.492;2022-10-16T04:37:07;4.95;;;1.40;;
44143;SDS011;43510;51.920;4.492;2022-10-16T04:39:32;4.70;;;1.50;;
44143;SDS011;43510;51.920;4.492;2022-10-16T04:41:57;4.10;;;1.73;;
44143;SDS011;43510;51.920;4.492;2022-10-16T04:44:23;4.95;;;1.52;;
44143;SDS011;43510;51.920;4.492;2022-10-16T04:46:50;3.10;;;1.30;;
44143;SDS011;43510;51.920;4.492;2022-10-16T04:49:15;2.88;;;1.27;;
44143;SDS011;43510;51.920;4.492;2022-10-16T04:51:41;7.75;;;1.80;;
44143;SDS011;43510;51.920;4.492;2022-10-16T04:54:06;6.45;;;1.80;;
44143;SDS011;43510;51.920;4.492;2022-10-16T04:56:36;8.02;;;1.60;;
44143;SDS011;43510;51.920;4.492;2022-10-16T04:59:08;7.38;;;1.27;;
44143;SDS011;43510;51.920;4.492;2022-10-16T05:01:34;4.10;;;1.38;;
44143;SDS011;43510;51.920;4.492;2022-10-16T05:04:01;3.80;;;1.35;;
44143;SDS011;43510;51.920;4.492;2022-10-16T05:06:27;3.03;;;1.10;;
44143;SDS011;43510;51.920;4.492;2022-10-16T05:08:58;4.00;;;1.10;;
44143;SDS011;43510;51.920;4.492;2022-10-16T05:11:42;4.82;;;1.20;;
44143;SDS011;43510;51.920;4.492;2022-10-16T05:14:16;3.20;;;1.30;;
44143;SDS011;43510;51.920;4.492;2022-10-16T05:16:42;3.95;;;1.30;;
44143;SDS011;43510;51.920;4.492;2022-10-16T05:19:07;4.63;;;1.30;;
44143;SDS011;43510;51.920;4.492;2022-10-16T05:21:33;5.30;;;1.38;;
44143;SDS011;43510;51.920;4.492;2022-10-16T05:23:58;4.43;;;1.20;;
44143;SDS011;43510;51.920;4.492;2022-10-16T05:26:23;3.00;;;1.30;;
44143;SDS011;43510;51.920;4.492;2022-10-16T05:28:49;4.45;;;1.20;;
44143;SDS011;43510;51.920;4.492;2022-10-16T05:31:15;4.93;;;1.30;;
44143;SDS011;43510;51.920;4.492;2022-10-16T05:33:40;5.50;;;1.30;;
44143;SDS011;43510;51.920;4.492;2022-10-16T05:36:07;5.80;;;1.40;;
44143;SDS011;43510;51.920;4.492;2022-10-16T05:38:38;5.50;;;1.20;;
44143;SDS011;43510;51.920;4.492;2022-10-16T05:41:09;4.10;;;1.40;;
44143;SDS011;43510;51.920;4.492;2022-10-16T05:43:35;2.42;;;0.98;;
44143;SDS011;43510;51.920;4.492;2022-10-16T05:46:04;6.05;;;1.25;;
44143;SDS011;43510;51.920;4.492;2022-10-16T05:48:52;4.78;;;1.20;;
44143;SDS011;43510;51.920;4.492;2022-10-16T05:51:44;4.03;;;1.60;;
44143;SDS011;43510;51.920;4.492;2022-10-16T05:54:25;5.32;;;2.08;;
44143;SDS011;43510;51.920;4.492;2022-10-16T05:57:03;6.93;;;1.73;;
44143;SDS011;43510;51.920;4.492;2022-10-16T05:59:30;2.85;;;1.20;;
44143;SDS011;43510;51.920;4.492;2022-10-16T06:01:58;5.53;;;1.30;;
44143;SDS011;43510;51.920;4.492;2022-10-16T06:04:25;11.32;;;2.55;;
44143;SDS011;43510;51.920;4.492;2022-10-16T06:06:51;3.50;;;1.10;;
44143;SDS011;43510;51.920;4.492;2022-10-16T06:09:16;5.28;;;1.35;;
44143;SDS011;43510;51.920;4.492;2022-10-16T06:11:43;4.50;;;1.23;;
44143;SDS011;43510;51.920;4.492;2022-10-16T06:14:09;4.20;;;1.25;;
44143;SDS011;43510;51.920;4.492;2022-10-16T06:16:35;5.65;;;0.90;;
44143;SDS011;43510;51.920;4.492;2022-10-16T06:19:01;7.32;;;1.02;;
44143;SDS011;43510;51.920;4.492;2022-10-16T06:21:30;6.25;;;1.52;;
44143;SDS011;43510;51.920;4.492;2022-10-16T06:23:56;8.32;;;1.48;;
44143;SDS011;43510;51.920;4.492;2022-10-16T06:26:24;3.80;;;0.90;;
44143;SDS011;43510;51.920;4.492;2022-10-16T06:28:51;8.05;;;0.77;;
44143;SDS011;43510;51.920;4.492;2022-10-16T06:31:16;10.40;;;1.52;;
44143;SDS011;43510;51.920;4.492;2022-10-16T06:33:42;5.68;;;1.00;;
44143;SDS011;43510;51.920;4.492;2022-10-16T06:36:12;4.55;;;0.98;;
44143;SDS011;43510;51.920;4.492;2022-10-16T06:38:39;3.75;;;0.85;;
44143;SDS011;43510;51.920;4.492;2022-10-16T06:41:06;8.02;;;1.25;;
44143;SDS011;43510;51.920;4.492;2022-10-16T06:43:32;5.63;;;0.98;;
44143;SDS011;43510;51.920;4.492;2022-10-16T06:46:00;2.97;;;0.88;;
44143;SDS011;43510;51.920;4.492;2022-10-16T06:48:27;3.97;;;1.00;;
44143;SDS011;43510;51.920;4.492;2022-10-16T06:53:27;4.82;;;1.10;;
44143;SDS011;43510;51.920;4.492;2022-10-16T06:55:54;5.68;;;1.45;;
44143;SDS011;43510;51.920;4.492;2022-10-16T06:58:20;4.72;;;1.10;;
44143;SDS011;43510;51.920;4.492;2022-10-16T07:00:45;6.68;;;1.13;;
44143;SDS011;43510;51.920;4.492;2022-10-16T07:03:11;6.85;;;1.77;;
44143;SDS011;43510;51.920;4.492;2022-10-16T07:05:40;5.53;;;1.20;;
44143;SDS011;43510;51.920;4.492;2022-10-16T07:08:07;3.50;;;0.80;;
44143;SDS011;43510;51.920;4.492;2022-10-16T07:10:33;6.07;;;1.30;;
44143;SDS011;43510;51.920;4.492;2022-10-16T07:12:59;8.02;;;1.48;;
44143;SDS011;43510;51.920;4.492;2022-10-16T07:15:24;8.95;;;1.50;;
44143;SDS011;43510;51.920;4.492;2022-10-16T07:17:50;6.32;;;1.40;;
44143;SDS011;43510;51.920;4.492;2022-10-16T07:20:18;4.38;;;1.30;;
44143;SDS011;43510;51.920;4.492;2022-10-16T07:22:43;6.43;;;1.80;;
44143;SDS011;43510;51.920;4.492;2022-10-16T07:25:09;6.20;;;1.33;;
44143;SDS011;43510;51.920;4.492;2022-10-16T07:27:34;8.02;;;1.00;;
44143;SDS011;43510;51.920;4.492;2022-10-16T07:30:03;4.53;;;1.60;;
44143;SDS011;43510;51.920;4.492;2022-10-16T07:32:29;3.63;;;1.02;;
44143;SDS011;43510;51.920;4.492;2022-10-16T07:34:54;6.78;;;1.30;;
44143;SDS011;43510;51.920;4.492;2022-10-16T07:37:20;4.55;;;1.05;;
44143;SDS011;43510;51.920;4.492;2022-10-16T07:39:46;4.38;;;1.40;;
44143;SDS011;43510;51.920;4.492;2022-10-16T07:42:11;4.32;;;1.10;;
44143;SDS011;43510;51.920;4.492;2022-10-16T07:44:38;5.32;;;1.40;;
44143;SDS011;43510;51.920;4.492;2022-10-16T07:47:03;3.30;;;1.08;;
44143;SDS011;43510;51.920;4.492;2022-10-16T07:49:29;3.30;;;0.75;;
44143;SDS011;43510;51.920;4.492;2022-10-16T07:51:54;6.82;;;1.13;;
44143;SDS011;43510;51.920;4.492;2022-10-16T07:54:19;7.20;;;1.17;;
44143;SDS011;43510;51.920;4.492;2022-10-16T07:56:45;7.57;;;1.27;;
44143;SDS011;43510;51.920;4.492;2022-10-16T07:59:10;2.47;;;0.90;;
44143;SDS011;43510;51.920;4.492;2022-10-16T08:01:40;4.30;;;1.10;;
44143;SDS011;43510;51.920;4.492;2022-10-16T08:04:07;4.63;;;1.05;;
44143;SDS011;43510;51.920;4.492;2022-10-16T08:06:38;9.38;;;1.25;;
44143;SDS011;43510;51.920;4.492;2022-10-16T08:09:05;5.13;;;1.37;;
44143;SDS011;43510;51.920;4.492;2022-10-16T08:11:32;9.55;;;1.85;;
44143;SDS011;43510;51.920;4.492;2022-10-16T08:13:58;7.93;;;1.60;;
44143;SDS011;43510;51.920;4.492;2022-10-16T08:16:23;5.30;;;0.75;;
44143;SDS011;43510;51.920;4.492;2022-10-16T08:18:49;5.32;;;0.98;;
44143;SDS011;43510;51.920;4.492;2022-10-16T08:21:17;7.45;;;1.48;;
44143;SDS011;43510;51.920;4.492;2022-10-16T08:23:44;7.05;;;1.25;;
44143;SDS011;43510;51.920;4.492;2022-10-16T08:26:12;8.02;;;1.23;;
44143;SDS011;43510;51.920;4.492;2022-10-16T08:28:38;7.47;;;1.58;;
44143;SDS011;43510;51.920;4.492;2022-10-16T08:31:08;6.20;;;1.27;;
44143;SDS011;43510;51.920;4.492;2022-10-16T08:33:34;10.02;;;1.30;;
44143;SDS011;43510;51.920;4.492;2022-10-16T08:36:00;6.68;;;1.27;;
44143;SDS011;43510;51.920;4.492;2022-10-16T08:38:26;7.40;;;1.13;;
44143;SDS011;43510;51.920;4.492;2022-10-16T08:40:52;10.57;;;1.45;;
44143;SDS011;43510;51.920;4.492;2022-10-16T08:43:37;6.88;;;1.25;;
44143;SDS011;43510;51.920;4.492;2022-10-16T08:49:22;8.02;;;1.25;;
44143;SDS011;43510;51.920;4.492;2022-10-16T08:51:49;5.65;;;1.40;;
44143;SDS011;43510;51.920;4.492;2022-10-16T08:57:12;4.80;;;1.00;;
44143;SDS011;43510;51.920;4.492;2022-10-16T08:59:42;5.35;;;1.00;;
44143;SDS011;43510;51.920;4.492;2022-10-16T09:02:20;6.43;;;1.13;;
44143;SDS011;43510;51.920;4.492;2022-10-16T09:04:54;9.32;;;1.20;;
44143;SDS011;43510;51.920;4.492;2022-10-16T09:10:21;10.52;;;1.33;;
44143;SDS011;43510;51.920;4.492;2022-10-16T09:12:58;9.02;;;1.35;;
44143;SDS011;43510;51.920;4.492;2022-10-16T09:18:50;9.00;;;1.38;;
44143;SDS011;43510;51.920;4.492;2022-10-16T09:21:29;11.32;;;1.90;;
44143;SDS011;43510;51.920;4.492;2022-10-16T09:24:00;4.30;;;1.00;;
44143;SDS011;43510;51.920;4.492;2022-10-16T09:26:39;6.53;;;1.80;;
44143;SDS011;43510;51.920;4.492;2022-10-16T09:29:08;7.57;;;1.35;;
44143;SDS011;43510;51.920;4.492;2022-10-16T09:31:37;5.18;;;1.55;;
44143;SDS011;43510;51.920;4.492;2022-10-16T09:34:03;3.40;;;1.05;;
44143;SDS011;43510;51.920;4.492;2022-10-16T09:36:33;8.93;;;1.80;;
44143;SDS011;43510;51.920;4.492;2022-10-16T09:39:07;6.97;;;1.30;;
44143;SDS011;43510;51.920;4.492;2022-10-16T09:41:40;8.57;;;1.08;;
44143;SDS011;43510;51.920;4.492;2022-10-16T09:44:18;4.78;;;1.10;;
44143;SDS011;43510;51.920;4.492;2022-10-16T09:46:48;8.93;;;1.45;;
44143;SDS011;43510;51.920;4.492;2022-10-16T09:49:23;7.75;;;1.50;;
44143;SDS011;43510;51.920;4.492;2022-10-16T09:51:51;7.40;;;2.47;;
44143;SDS011;43510;51.920;4.492;2022-10-16T09:54:28;8.38;;;1.75;;
44143;SDS011;43510;51.920;4.492;2022-10-16T09:57:03;7.75;;;1.60;;
44143;SDS011;43510;51.920;4.492;2022-10-16T09:59:30;8.10;;;1.33;;
44143;SDS011;43510;51.920;4.492;2022-10-16T10:01:56;6.32;;;1.25;;
44143;SDS011;43510;51.920;4.492;2022-10-16T10:07:07;7.65;;;1.25;;
44143;SDS011;43510;51.920;4.492;2022-10-16T10:09:44;9.00;;;1.17;;
44143;SDS011;43510;51.920;4.492;2022-10-16T10:12:19;9.40;;;1.42;;
44143;SDS011;43510;51.920;4.492;2022-10-16T10:14:50;15.00;;;1.88;;
44143;SDS011;43510;51.920;4.492;2022-10-16T10:19:57;7.13;;;1.23;;
44143;SDS011;43510;51.920;4.492;2022-10-16T10:27:38;9.70;;;1.13;;
44143;SDS011;43510;51.920;4.492;2022-10-16T10:32:54;9.68;;;1.52;;
44143;SDS011;43510;51.920;4.492;2022-10-16T10:38:03;7.70;;;0.82;;
44143;SDS011;43510;51.920;4.492;2022-10-16T10:46:14;4.80;;;1.20;;
44143;SDS011;43510;51.920;4.492;2022-10-16T10:54:30;8.90;;;2.40;;
44143;SDS011;43510;51.920;4.492;2022-10-16T11:02:41;9.25;;;1.42;;
44143;SDS011;43510;51.920;4.492;2022-10-16T11:05:14;12.05;;;2.45;;
44143;SDS011;43510;51.920;4.492;2022-10-16T11:07:51;8.30;;;1.37;;
44143;SDS011;43510;51.920;4.492;2022-10-16T11:10:24;10.82;;;1.25;;
44143;SDS011;43510;51.920;4.492;2022-10-16T11:16:00;7.30;;;1.38;;
44143;SDS011;43510;51.920;4.492;2022-10-16T11:21:05;8.93;;;1.52;;
44143;SDS011;43510;51.920;4.492;2022-10-16T11:26:09;11.32;;;1.85;;
44143;SDS011;43510;51.920;4.492;2022-10-16T11:28:44;8.02;;;1.30;;
44143;SDS011;43510;51.920;4.492;2022-10-16T11:34:05;8.35;;;1.20;;
44143;SDS011;43510;51.920;4.492;2022-10-16T11:39:38;7.18;;;1.05;;
44143;SDS011;43510;51.920;4.492;2022-10-16T11:47:19;11.15;;;1.80;;
44143;SDS011;43510;51.920;4.492;2022-10-16T11:49:52;9.10;;;1.40;;
44143;SDS011;43510;51.920;4.492;2022-10-16T11:52:25;9.68;;;1.60;;
44143;SDS011;43510;51.920;4.492;2022-10-16T11:55:13;15.82;;;1.70;;
44143;SDS011;43510;51.920;4.492;2022-10-16T11:57:44;9.18;;;2.28;;
44143;SDS011;43510;51.920;4.492;2022-10-16T12:00:24;9.57;;;1.15;;
44143;SDS011;43510;51.920;4.492;2022-10-16T12:10:24;7.70;;;1.73;;
44143;SDS011;43510;51.920;4.492;2022-10-16T12:12:52;10.68;;;1.58;;
44143;SDS011;43510;51.920;4.492;2022-10-16T12:15:20;8.30;;;1.58;;
44143;SDS011;43510;51.920;4.492;2022-10-16T12:17:50;14.80;;;2.17;;
44143;SDS011;43510;51.920;4.492;2022-10-16T12:22:47;10.02;;;1.98;;
44143;SDS011;43510;51.920;4.492;2022-10-16T12:25:53;12.85;;;1.40;;
44143;SDS011;43510;51.920;4.492;2022-10-16T12:30:40;6.47;;;1.20;;
44143;SDS011;43510;51.920;4.492;2022-10-16T12:33:19;7.93;;;1.17;;
44143;SDS011;43510;51.920;4.492;2022-10-16T12:35:47;8.52;;;1.40;;
44143;SDS011;43510;51.920;4.492;2022-10-16T12:38:20;10.98;;;1.20;;
44143;SDS011;43510;51.920;4.492;2022-10-16T12:41:07;9.13;;;1.70;;
44143;SDS011;43510;51.920;4.492;2022-10-16T12:43:35;6.50;;;1.30;;
44143;SDS011;43510;51.920;4.492;2022-10-16T12:48:34;10.73;;;1.83;;
44143;SDS011;43510;51.920;4.492;2022-10-16T12:53:58;9.82;;;1.50;;
44143;SDS011;43510;51.920;4.492;2022-10-16T13:07:32;8.82;;;1.52;;
44143;SDS011;43510;51.920;4.492;2022-10-16T13:10:28;13.88;;;2.65;;
44143;SDS011;43510;51.920;4.492;2022-10-16T13:24:58;8.73;;;2.35;;
44143;SDS011;43510;51.920;4.492;2022-10-16T13:33:17;7.43;;;1.25;;
44143;SDS011;43510;51.920;4.492;2022-10-16T13:35:52;10.93;;;2.05;;
44143;SDS011;43510;51.920;4.492;2022-10-16T13:38:20;7.35;;;1.10;;
44143;SDS011;43510;51.920;4.492;2022-10-16T13:43:34;8.80;;;1.35;;
44143;SDS011;43510;51.920;4.492;2022-10-16T13:46:01;6.07;;;1.30;;
44143;SDS011;43510;51.920;4.492;2022-10-16T13:48:29;14.43;;;1.75;;
44143;SDS011;43510;51.920;4.492;2022-10-16T13:51:03;11.25;;;2.08;;
44143;SDS011;43510;51.920;4.492;2022-10-16T13:53:31;10.60;;;1.77;;
44143;SDS011;43510;51.920;4.492;2022-10-16T13:55:58;8.93;;;1.58;;
44143;SDS011;43510;51.920;4.492;2022-10-16T13:58:25;9.50;;;1.55;;
44143;SDS011;43510;51.920;4.492;2022-10-16T14:00:55;8.00;;;1.42;;
44143;SDS011;43510;51.920;4.492;2022-10-16T14:03:26;7.03;;;1.73;;
44143;SDS011;43510;51.920;4.492;2022-10-16T14:05:54;11.73;;;2.40;;
44143;SDS011;43510;51.920;4.492;2022-10-16T14:08:25;9.65;;;2.00;;
44143;SDS011;43510;51.920;4.492;2022-10-16T14:10:53;10.93;;;1.57;;
44143;SDS011;43510;51.920;4.492;2022-10-16T14:13:26;7.47;;;1.88;;
44143;SDS011;43510;51.920;4.492;2022-10-16T14:16:05;12.65;;;1.83;;
44143;SDS011;43510;51.920;4.492;2022-10-16T14:18:34;12.80;;;1.65;;
44143;SDS011;43510;51.920;4.492;2022-10-16T14:21:06;9.88;;;1.60;;
44143;SDS011;43510;51.920;4.492;2022-10-16T14:23:37;10.93;;;1.75;;
44143;SDS011;43510;51.920;4.492;2022-10-16T14:28:36;11.45;;;2.10;;
44143;SDS011;43510;51.920;4.492;2022-10-16T14:31:13;9.68;;;1.33;;
44143;SDS011;43510;51.920;4.492;2022-10-16T14:33:51;12.88;;;1.70;;
44143;SDS011;43510;51.920;4.492;2022-10-16T14:36:16;11.68;;;1.45;;
44143;SDS011;43510;51.920;4.492;2022-10-16T14:41:14;9.95;;;1.85;;
44143;SDS011;43510;51.920;4.492;2022-10-16T14:43:41;10.75;;;1.67;;
44143;SDS011;43510;51.920;4.492;2022-10-16T14:46:28;10.07;;;1.42;;
44143;SDS011;43510;51.920;4.492;2022-10-16T14:49:19;7.88;;;1.27;;
44143;SDS011;43510;51.920;4.492;2022-10-16T14:51:46;7.78;;;1.50;;
44143;SDS011;43510;51.920;4.492;2022-10-16T14:54:13;5.90;;;0.93;;
44143;SDS011;43510;51.920;4.492;2022-10-16T15:04:45;9.65;;;1.92;;
44143;SDS011;43510;51.920;4.492;2022-10-16T15:07:12;11.30;;;2.17;;
44143;SDS011;43510;51.920;4.492;2022-10-16T15:09:37;8.90;;;1.58;;
44143;SDS011;43510;51.920;4.492;2022-10-16T15:12:03;16.83;;;2.28;;
44143;SDS011;43510;51.920;4.492;2022-10-16T15:14:29;15.65;;;2.50;;
44143;SDS011;43510;51.920;4.492;2022-10-16T15:16:55;11.88;;;1.63;;
44143;SDS011;43510;51.920;4.492;2022-10-16T15:19:20;15.13;;;2.03;;
44143;SDS011;43510;51.920;4.492;2022-10-16T15:21:45;10.23;;;1.45;;
44143;SDS011;43510;51.920;4.492;2022-10-16T15:24:12;17.17;;;2.13;;
44143;SDS011;43510;51.920;4.492;2022-10-16T15:26:38;8.63;;;1.42;;
44143;SDS011;43510;51.920;4.492;2022-10-16T15:29:04;7.50;;;2.05;;
44143;SDS011;43510;51.920;4.492;2022-10-16T15:31:29;8.88;;;2.15;;
44143;SDS011;43510;51.920;4.492;2022-10-16T15:33:55;7.78;;;1.58;;
44143;SDS011;43510;51.920;4.492;2022-10-16T15:36:36;12.10;;;1.55;;
44143;SDS011;43510;51.920;4.492;2022-10-16T15:39:03;14.88;;;2.15;;
44143;SDS011;43510;51.920;4.492;2022-10-16T15:41:29;8.65;;;1.58;;
44143;SDS011;43510;51.920;4.492;2022-10-16T15:43:54;11.23;;;2.08;;
44143;SDS011;43510;51.920;4.492;2022-10-16T15:46:20;8.00;;;2.22;;
44143;SDS011;43510;51.920;4.492;2022-10-16T15:48:47;11.60;;;2.00;;
44143;SDS011;43510;51.920;4.492;2022-10-16T15:51:14;11.60;;;1.83;;
44143;SDS011;43510;51.920;4.492;2022-10-16T15:53:40;11.82;;;1.83;;
44143;SDS011;43510;51.920;4.492;2022-10-16T15:56:06;6.28;;;1.60;;
44143;SDS011;43510;51.920;4.492;2022-10-16T15:58:32;11.63;;;1.70;;
44143;SDS011;43510;51.920;4.492;2022-10-16T16:00:58;13.07;;;2.28;;
44143;SDS011;43510;51.920;4.492;2022-10-16T16:03:26;12.68;;;2.00;;
44143;SDS011;43510;51.920;4.492;2022-10-16T16:05:52;14.18;;;2.75;;
44143;SDS011;43510;51.920;4.492;2022-10-16T16:08:18;12.68;;;2.38;;
44143;SDS011;43510;51.920;4.492;2022-10-16T16:10:45;7.63;;;1.60;;
44143;SDS011;43510;51.920;4.492;2022-10-16T16:13:10;9.05;;;1.92;;
44143;SDS011;43510;51.920;4.492;2022-10-16T16:15:38;15.63;;;2.42;;
44143;SDS011;43510;51.920;4.492;2022-10-16T16:18:05;13.57;;;2.40;;
44143;SDS011;43510;51.920;4.492;2022-10-16T16:20:30;8.40;;;1.60;;
44143;SDS011;43510;51.920;4.492;2022-10-16T16:22:56;13.70;;;2.70;;
44143;SDS011;43510;51.920;4.492;2022-10-16T16:25:22;11.93;;;1.80;;
44143;SDS011;43510;51.920;4.492;2022-10-16T16:27:47;12.18;;;1.70;;
44143;SDS011;43510;51.920;4.492;2022-10-16T16:30:16;11.05;;;1.67;;
44143;SDS011;43510;51.920;4.492;2022-10-16T16:32:43;8.37;;;1.50;;
44143;SDS011;43510;51.920;4.492;2022-10-16T16:35:09;12.48;;;1.92;;
44143;SDS011;43510;51.920;4.492;2022-10-16T16:37:34;11.20;;;2.25;;
44143;SDS011;43510;51.920;4.492;2022-10-16T16:40:00;13.80;;;2.20;;
44143;SDS011;43510;51.920;4.492;2022-10-16T16:42:26;9.32;;;2.60;;
44143;SDS011;43510;51.920;4.492;2022-10-16T16:44:52;12.57;;;2.17;;
44143;SDS011;43510;51.920;4.492;2022-10-16T16:47:18;10.38;;;2.15;;
44143;SDS011;43510;51.920;4.492;2022-10-16T16:49:44;16.98;;;2.28;;
44143;SDS011;43510;51.920;4.492;2022-10-16T16:52:11;12.05;;;1.60;;
44143;SDS011;43510;51.920;4.492;2022-10-16T16:54:39;21.10;;;2.28;;
44143;SDS011;43510;51.920;4.492;2022-10-16T16:57:04;6.63;;;1.40;;
44143;SDS011;43510;51.920;4.492;2022-10-16T16:59:30;15.23;;;2.25;;
44143;SDS011;43510;51.920;4.492;2022-10-16T17:01:57;11.65;;;1.90;;
44143;SDS011;43510;51.920;4.492;2022-10-16T17:04:25;20.65;;;2.45;;
44143;SDS011;43510;51.920;4.492;2022-10-16T17:06:52;10.07;;;2.90;;
44143;SDS011;43510;51.920;4.492;2022-10-16T17:09:19;15.60;;;3.00;;
44143;SDS011;43510;51.920;4.492;2022-10-16T17:11:44;16.17;;;3.05;;
44143;SDS011;43510;51.920;4.492;2022-10-16T17:14:11;14.27;;;2.85;;
44143;SDS011;43510;51.920;4.492;2022-10-16T17:16:37;10.90;;;2.65;;
44143;SDS011;43510;51.920;4.492;2022-10-16T17:19:04;9.27;;;1.90;;
44143;SDS011;43510;51.920;4.492;2022-10-16T17:21:31;13.15;;;2.80;;
44143;SDS011;43510;51.920;4.492;2022-10-16T17:23:57;9.80;;;2.25;;